Time;durP1;ratioP1;P1;durP2;ratioP2;P2;SDS_P1;SDS_P2;PMS_P1;PMS_P2;Temp;Humidity;BMP_temperature;BMP_pressure;BME280_temperature;BME280_humidity;BME280_pressure;Samples;Min_cycle;Max_cycle;Signal;HPM_P1;HPM_P2
2021/01/28 00:00:41;;;;;;;;;;;2.50;99.90;;;;;;5050264;28;20050;-74
2021/01/28 00:03:07;;;;;;;;;;;2.40;99.90;;;;;;5050486;28;19916;-74
2021/01/28 00:05:34;;;;;;;;;;;2.40;99.90;;;;;;5050104;28;19920;-72
2021/01/28 00:08:00;;;;;;;;;;;2.40;99.90;;;;;;5049972;28;19919;-74
2021/01/28 00:10:26;;;;;;;;;;;2.40;99.90;;;;;;5050334;28;19917;-73
2021/01/28 00:12:51;;;;;;;;;;;2.40;99.90;;;;;;5050161;28;19916;-74
2021/01/28 00:15:18;;;;;;;;;;;2.40;99.90;;;;;;5050432;28;19994;-74
2021/01/28 00:17:44;;;;;;;;;;;2.50;99.90;;;;;;5049196;28;19919;-74
2021/01/28 00:20:15;;;;;;;;;;;2.40;99.90;;;;;;5050082;28;19909;-72
2021/01/28 00:22:41;;;;;;;;;;;2.50;99.90;;;;;;5050471;28;19913;-74
2021/01/28 00:25:07;;;;;;;;;;;2.50;99.90;;;;;;5049839;28;19915;-74
2021/01/28 00:27:33;;;;;;;;;;;2.50;99.90;;;;;;5049322;28;19927;-74
2021/01/28 00:29:58;;;;;;;;;;;2.60;99.90;;;;;;5049411;28;19916;-74
2021/01/28 00:32:24;;;;;;;;;;;2.60;99.90;;;;;;5050113;28;19916;-74
2021/01/28 00:34:49;;;;;;;;;;;2.60;99.90;;;;;;5049991;28;19921;-74
2021/01/28 00:37:14;;;;;;;;;;;2.60;99.90;;;;;;5049426;28;19909;-74
2021/01/28 00:39:40;;;;;;;;;;;2.60;99.90;;;;;;5049249;28;19940;-74
2021/01/28 00:42:06;;;;;;;;;;;2.60;99.90;;;;;;5050130;28;20000;-74
2021/01/28 00:44:31;;;;;;;;;;;2.70;99.90;;;;;;5048949;28;19909;-74
2021/01/28 00:46:57;;;;;;;;;;;2.70;99.90;;;;;;5049105;28;20019;-74
2021/01/28 00:49:22;;;;;;;;;;;2.70;99.90;;;;;;5049552;28;19916;-74
2021/01/28 00:51:48;;;;;;;;;;;2.70;99.90;;;;;;5049201;28;19978;-73
2021/01/28 00:54:13;;;;;;;;;;;2.70;99.90;;;;;;5049690;28;20489;-74
2021/01/28 00:56:38;;;;;;;;;;;2.70;99.90;;;;;;5049352;28;20023;-74
2021/01/28 00:59:04;;;;;;;;;;;2.70;99.90;;;;;;5049434;28;19924;-73
2021/01/28 01:01:30;;;;;;;;;;;2.70;99.90;;;;;;5048907;28;20270;-74
2021/01/28 01:03:55;;;;;;;;;;;2.80;99.90;;;;;;5049878;28;19909;-73
2021/01/28 01:06:20;;;;;;;;;;;2.80;99.90;;;;;;5049483;28;20316;-73
2021/01/28 01:08:46;;;;;;;;;;;2.80;99.90;;;;;;5049600;28;20621;-74
2021/01/28 01:11:12;;;;;;;;;;;2.80;99.90;;;;;;5049367;28;19956;-73
2021/01/28 01:13:38;;;;;;;;;;;2.80;99.90;;;;;;5049159;28;20460;-73
2021/01/28 01:16:05;;;;;;;;;;;2.80;99.90;;;;;;5048464;28;19913;-73
2021/01/28 01:18:32;;;;;;;;;;;2.80;99.90;;;;;;5050083;28;19963;-74
2021/01/28 01:20:58;;;;;;;;;;;2.80;99.90;;;;;;5049741;28;19917;-74
2021/01/28 01:23:24;;;;;;;;;;;2.80;99.90;;;;;;5049840;28;20007;-74
2021/01/28 01:25:49;;;;;;;;;;;2.80;99.90;;;;;;5049376;28;19963;-74
2021/01/28 01:28:15;;;;;;;;;;;2.80;99.90;;;;;;5048953;28;20255;-74
2021/01/28 01:30:41;;;;;;;;;;;2.80;99.90;;;;;;5049671;28;19913;-74
2021/01/28 01:33:06;;;;;;;;;;;2.80;99.90;;;;;;5048966;28;19909;-73
2021/01/28 01:35:32;;;;;;;;;;;2.80;99.90;;;;;;5048773;28;20412;-74
2021/01/28 01:37:58;;;;;;;;;;;2.80;99.90;;;;;;5048598;28;19915;-74
2021/01/28 01:40:24;;;;;;;;;;;2.80;99.90;;;;;;5048918;28;19913;-74
2021/01/28 01:42:50;;;;;;;;;;;2.80;99.90;;;;;;5048701;28;19913;-74
2021/01/28 01:45:16;;;;;;;;;;;2.90;99.90;;;;;;5048619;28;19952;-74
2021/01/28 01:47:53;;;;;;;;;;;2.90;99.90;;;;;;5047451;28;19912;-74
2021/01/28 01:50:29;;;;;;;;;;;2.80;99.90;;;;;;5049046;28;19913;-74
2021/01/28 01:52:56;;;;;;;;;;;2.90;99.90;;;;;;5048973;28;20738;-74
2021/01/28 01:55:22;;;;;;;;;;;2.90;99.90;;;;;;5048115;28;19978;-73
2021/01/28 01:57:47;;;;;;;;;;;2.90;99.90;;;;;;5047575;28;20341;-74
2021/01/28 02:00:15;;;;;;;;;;;2.90;99.90;;;;;;5048243;28;19970;-73
2021/01/28 02:02:42;;;;;;;;;;;2.90;99.90;;;;;;5047768;28;20512;-74
2021/01/28 02:05:13;;;;;;;;;;;2.90;99.90;;;;;;5048527;28;20460;-74
2021/01/28 02:07:39;;;;;;;;;;;2.90;99.90;;;;;;5047504;28;20094;-74
2021/01/28 02:10:07;;;;;;;;;;;2.90;99.90;;;;;;5048042;28;19917;-74
2021/01/28 02:12:33;;;;;;;;;;;2.90;99.90;;;;;;5048626;28;20007;-73
2021/01/28 02:14:58;;;;;;;;;;;3.00;99.90;;;;;;5047500;28;19973;-74
2021/01/28 02:17:24;;;;;;;;;;;3.00;99.90;;;;;;5047563;28;19920;-74
2021/01/28 02:19:53;;;;;;;;;;;3.00;99.90;;;;;;5048114;28;19962;-74
2021/01/28 02:22:37;;;;;;;;;;;3.00;99.90;;;;;;5049106;28;19940;-73
2021/01/28 02:25:21;;;;;;;;;;;3.00;99.90;;;;;;5048208;28;19920;-74
2021/01/28 02:27:47;;;;;;;;;;;3.00;99.90;;;;;;5047252;28;19917;-73
2021/01/28 02:30:19;;;;;;;;;;;2.90;99.90;;;;;;5048283;28;19919;-73
2021/01/28 02:32:49;;;;;;;;;;;2.90;99.90;;;;;;5047977;28;20079;-74
2021/01/28 02:35:15;;;;;;;;;;;2.90;99.90;;;;;;5048358;28;19923;-74
2021/01/28 02:37:40;;;;;;;;;;;2.90;99.90;;;;;;5047234;28;20364;-73
2021/01/28 02:40:07;;;;;;;;;;;2.90;99.90;;;;;;5047676;28;19913;-74
2021/01/28 02:42:33;;;;;;;;;;;2.90;99.90;;;;;;5048437;28;20293;-74
2021/01/28 02:44:58;;;;;;;;;;;2.90;99.90;;;;;;5047595;28;19916;-73
2021/01/28 02:47:24;;;;;;;;;;;2.90;99.90;;;;;;5047526;28;19983;-73
2021/01/28 02:49:50;;;;;;;;;;;2.90;99.90;;;;;;5047755;28;20251;-73
2021/01/28 02:52:16;;;;;;;;;;;2.90;99.90;;;;;;5048351;28;19955;-73
2021/01/28 02:54:45;;;;;;;;;;;2.80;99.90;;;;;;5047665;28;20297;-74
2021/01/28 02:57:11;;;;;;;;;;;2.80;99.90;;;;;;5047743;28;19913;-73
2021/01/28 02:59:36;;;;;;;;;;;2.80;99.90;;;;;;5047053;28;19909;-73
2021/01/28 03:02:09;;;;;;;;;;;2.80;99.90;;;;;;5047946;28;19912;-73
2021/01/28 03:04:35;;;;;;;;;;;2.80;99.90;;;;;;5048145;28;19919;-74
2021/01/28 03:07:00;;;;;;;;;;;2.80;99.90;;;;;;5047416;28;19999;-73
2021/01/28 03:09:26;;;;;;;;;;;2.70;99.90;;;;;;5047522;28;19917;-73
2021/01/28 03:11:51;;;;;;;;;;;2.70;99.90;;;;;;5048056;28;19913;-74
2021/01/28 03:14:17;;;;;;;;;;;2.70;99.90;;;;;;5047827;28;19951;-72
2021/01/28 03:16:42;;;;;;;;;;;2.80;99.90;;;;;;5050996;28;19908;-72
2021/01/28 03:19:08;;;;;;;;;;;2.80;99.90;;;;;;5051916;28;19913;-73
2021/01/28 03:21:34;;;;;;;;;;;2.80;99.90;;;;;;5051416;28;19909;-74
2021/01/28 03:23:59;;;;;;;;;;;2.80;99.90;;;;;;5051095;28;19940;-74
2021/01/28 03:26:24;;;;;;;;;;;2.80;99.90;;;;;;5050938;28;19964;-75
2021/01/28 03:28:50;;;;;;;;;;;2.80;99.90;;;;;;5050482;28;19999;-73
2021/01/28 03:31:15;;;;;;;;;;;2.90;99.90;;;;;;5050806;28;20293;-74
2021/01/28 03:33:41;;;;;;;;;;;2.80;99.90;;;;;;5050897;28;19913;-74
2021/01/28 03:36:07;;;;;;;;;;;2.90;99.90;;;;;;5050409;28;19909;-74
2021/01/28 03:38:32;;;;;;;;;;;2.90;99.90;;;;;;5051036;28;19916;-74
2021/01/28 03:40:58;;;;;;;;;;;2.90;99.90;;;;;;5050316;28;19948;-74
2021/01/28 03:43:23;;;;;;;;;;;2.90;99.90;;;;;;5050988;28;19955;-75
2021/01/28 03:45:49;;;;;;;;;;;2.90;99.90;;;;;;5049904;28;19913;-74
2021/01/28 03:48:14;;;;;;;;;;;2.90;99.90;;;;;;5050521;28;19959;-73
2021/01/28 03:50:40;;;;;;;;;;;2.80;99.90;;;;;;5051123;28;20004;-74
2021/01/28 03:53:05;;;;;;;;;;;2.90;99.90;;;;;;5050384;28;19970;-74
2021/01/28 03:55:31;;;;;;;;;;;2.90;99.90;;;;;;5048859;28;20480;-73
2021/01/28 03:57:57;;;;;;;;;;;2.90;99.90;;;;;;5049786;28;19913;-73
2021/01/28 04:00:27;;;;;;;;;;;2.90;99.90;;;;;;5050754;28;20051;-73
2021/01/28 04:02:53;;;;;;;;;;;2.90;99.90;;;;;;5049574;28;19944;-74
2021/01/28 04:05:19;;;;;;;;;;;3.00;99.90;;;;;;5050663;28;20006;-74
2021/01/28 04:07:45;;;;;;;;;;;3.00;99.90;;;;;;5050071;28;20049;-73
2021/01/28 04:10:12;;;;;;;;;;;3.00;99.90;;;;;;5050437;28;19943;-73
2021/01/28 04:12:37;;;;;;;;;;;3.00;99.90;;;;;;5050207;28;19912;-73
2021/01/28 04:15:04;;;;;;;;;;;3.10;99.90;;;;;;5049939;28;19909;-74
2021/01/28 04:17:29;;;;;;;;;;;3.00;99.90;;;;;;5049001;28;20031;-74
2021/01/28 04:19:55;;;;;;;;;;;3.10;99.90;;;;;;5049985;28;20328;-73
2021/01/28 04:22:20;;;;;;;;;;;3.10;99.90;;;;;;5050714;28;20007;-74
2021/01/28 04:24:46;;;;;;;;;;;3.10;99.90;;;;;;5049718;28;19909;-74
2021/01/28 04:27:11;;;;;;;;;;;3.10;99.90;;;;;;5049299;28;19919;-74
2021/01/28 04:29:37;;;;;;;;;;;3.10;99.90;;;;;;5049069;28;19912;-74
2021/01/28 04:32:02;;;;;;;;;;;3.00;99.90;;;;;;5050307;28;19919;-73
2021/01/28 04:34:28;;;;;;;;;;;3.00;99.90;;;;;;5050131;28;19970;-73
2021/01/28 04:36:53;;;;;;;;;;;3.00;99.90;;;;;;5049687;28;19963;-73
2021/01/28 04:39:19;;;;;;;;;;;2.90;99.90;;;;;;5049705;28;20007;-73
2021/01/28 04:41:44;;;;;;;;;;;2.80;99.90;;;;;;5050082;28;19912;-73
2021/01/28 04:44:11;;;;;;;;;;;2.70;99.90;;;;;;5049056;28;19913;-74
2021/01/28 04:46:38;;;;;;;;;;;2.70;99.90;;;;;;5048893;28;19909;-73
2021/01/28 04:49:05;;;;;;;;;;;2.60;99.90;;;;;;5049527;28;19908;-73
2021/01/28 04:51:31;;;;;;;;;;;2.60;99.90;;;;;;5049587;28;19940;-73
2021/01/28 04:54:18;;;;;;;;;;;2.60;99.90;;;;;;5049575;28;20062;-73
2021/01/28 04:56:43;;;;;;;;;;;2.60;99.90;;;;;;5049289;28;19963;-73
2021/01/28 04:59:14;;;;;;;;;;;2.60;99.90;;;;;;5049178;28;19924;-73
2021/01/28 05:01:39;;;;;;;;;;;2.50;99.90;;;;;;5049470;28;19995;-73
2021/01/28 05:04:07;;;;;;;;;;;2.50;99.90;;;;;;5049611;28;19995;-72
2021/01/28 05:06:33;;;;;;;;;;;2.50;99.90;;;;;;5048777;28;20358;-73
2021/01/28 05:08:58;;;;;;;;;;;2.50;99.90;;;;;;5049065;28;19916;-72
2021/01/28 05:11:28;;;;;;;;;;;2.50;99.90;;;;;;5048827;28;19919;-74
2021/01/28 05:13:54;;;;;;;;;;;2.50;99.90;;;;;;5048796;28;19970;-72
2021/01/28 05:16:40;;;;;;;;;;;2.50;99.90;;;;;;5045897;28;19924;-73
2021/01/28 05:19:08;;;;;;;;;;;2.50;99.90;;;;;;5048065;28;19913;-73
2021/01/28 05:21:43;;;;;;;;;;;2.60;99.90;;;;;;5048192;28;19984;-73
2021/01/28 05:24:12;;;;;;;;;;;2.60;99.90;;;;;;5046138;28;20003;-73
2021/01/28 05:26:39;;;;;;;;;;;2.60;99.90;;;;;;5048074;28;19917;-73
2021/01/28 05:29:15;;;;;;;;;;;2.70;99.90;;;;;;5047205;28;20336;-73
2021/01/28 05:31:40;;;;;;;;;;;2.70;99.90;;;;;;5048088;28;19912;-72
2021/01/28 05:34:10;;;;;;;;;;;2.70;99.90;;;;;;5047855;28;19916;-73
2021/01/28 05:36:50;;;;;;;;;;;2.70;99.90;;;;;;5047454;28;20008;-73
2021/01/28 05:39:25;;;;;;;;;;;2.80;99.90;;;;;;5046977;28;20350;-73
2021/01/28 05:41:51;;;;;;;;;;;2.90;99.90;;;;;;5048822;28;19909;-72
2021/01/28 05:44:30;;;;;;;;;;;2.90;99.90;;;;;;5044682;28;19917;-71
2021/01/28 05:47:14;;;;;;;;;;;2.90;99.90;;;;;;5047628;28;19914;-73
2021/01/28 05:49:41;;;;;;;;;;;2.90;99.90;;;;;;5048126;28;20005;-73
2021/01/28 05:52:24;;;;;;;;;;;2.90;99.90;;;;;;5048698;28;19909;-74
2021/01/28 05:55:05;;;;;;;;;;;2.90;99.90;;;;;;5047991;28;19913;-74
2021/01/28 05:57:49;;;;;;;;;;;2.90;99.90;;;;;;5048149;28;19913;-73
2021/01/28 06:00:17;;;;;;;;;;;2.90;99.90;;;;;;5047874;28;19916;-72
2021/01/28 06:02:52;;;;;;;;;;;2.90;99.90;;;;;;5048238;28;19958;-72
2021/01/28 06:05:44;;;;;;;;;;;3.00;99.90;;;;;;5047012;28;19971;-73
2021/01/28 06:08:24;;;;;;;;;;;3.00;99.90;;;;;;5044730;28;19909;-73
2021/01/28 06:11:00;;;;;;;;;;;3.00;99.90;;;;;;5048150;28;19920;-73
2021/01/28 06:13:45;;;;;;;;;;;2.90;99.90;;;;;;5048118;28;20003;-72
2021/01/28 06:16:13;;;;;;;;;;;2.90;99.90;;;;;;5047102;28;20428;-72
2021/01/28 06:18:48;;;;;;;;;;;2.90;99.90;;;;;;5048033;28;20003;-72
2021/01/28 06:21:19;;;;;;;;;;;2.90;99.90;;;;;;5048334;28;20336;-73
2021/01/28 06:24:03;;;;;;;;;;;2.90;99.90;;;;;;5048309;28;20381;-73
2021/01/28 06:26:38;;;;;;;;;;;2.90;99.90;;;;;;5048005;28;20290;-73
2021/01/28 06:29:17;;;;;;;;;;;2.90;99.90;;;;;;5048596;28;19909;-72
2021/01/28 06:31:46;;;;;;;;;;;2.80;99.90;;;;;;5048803;28;19909;-72
2021/01/28 06:34:21;;;;;;;;;;;2.80;99.90;;;;;;5049094;28;19913;-72
2021/01/28 06:36:50;;;;;;;;;;;2.80;99.90;;;;;;5048229;28;19908;-72
2021/01/28 06:39:18;;;;;;;;;;;2.80;99.90;;;;;;5048280;28;19959;-72
2021/01/28 06:41:54;;;;;;;;;;;2.80;99.90;;;;;;5048163;28;19956;-72
2021/01/28 06:44:22;;;;;;;;;;;2.80;99.90;;;;;;5047305;28;19939;-73
2021/01/28 06:46:52;;;;;;;;;;;2.80;99.90;;;;;;5046988;28;19920;-72
2021/01/28 06:49:24;;;;;;;;;;;2.80;99.90;;;;;;5049705;28;19924;-72
2021/01/28 06:51:49;;;;;;;;;;;2.90;99.90;;;;;;5052769;28;20027;-72
2021/01/28 06:54:22;;;;;;;;;;;2.80;99.90;;;;;;5051928;28;20350;-72
2021/01/28 06:56:53;;;;;;;;;;;2.80;99.90;;;;;;5050004;28;20008;-72
2021/01/28 06:59:18;;;;;;;;;;;2.80;99.90;;;;;;5051123;28;19913;-72
2021/01/28 07:01:53;;;;;;;;;;;2.90;99.90;;;;;;5051411;28;19932;-72
2021/01/28 07:04:30;;;;;;;;;;;2.90;99.90;;;;;;5051688;28;19909;-73
2021/01/28 07:06:56;;;;;;;;;;;2.90;99.90;;;;;;5051780;28;19951;-72
2021/01/28 07:09:31;;;;;;;;;;;2.90;99.90;;;;;;5051457;28;19928;-73
2021/01/28 07:11:58;;;;;;;;;;;3.00;99.90;;;;;;5051802;28;19909;-73
2021/01/28 07:14:23;;;;;;;;;;;3.00;99.90;;;;;;5050958;28;19959;-73
2021/01/28 07:16:52;;;;;;;;;;;3.00;99.90;;;;;;5050713;28;20018;-73
2021/01/28 07:19:20;;;;;;;;;;;3.00;99.90;;;;;;5051533;28;19908;-73
2021/01/28 07:21:48;;;;;;;;;;;3.00;99.90;;;;;;5051829;28;19913;-72
2021/01/28 07:24:19;;;;;;;;;;;3.00;99.90;;;;;;5051310;28;19928;-72
2021/01/28 07:26:49;;;;;;;;;;;3.10;99.90;;;;;;5051261;28;19951;-72
2021/01/28 07:29:44;;;;;;;;;;;3.10;99.90;;;;;;5050644;28;20299;-72
2021/01/28 07:32:10;;;;;;;;;;;3.10;99.90;;;;;;5038040;28;19909;-73
2021/01/28 07:34:36;;;;;;;;;;;3.20;99.90;;;;;;5051587;28;19912;-72
2021/01/28 07:37:20;;;;;;;;;;;3.20;99.90;;;;;;5051084;28;20613;-72
2021/01/28 07:39:46;;;;;;;;;;;3.20;99.90;;;;;;5051178;28;19939;-73
2021/01/28 07:42:25;;;;;;;;;;;3.20;99.90;;;;;;5051733;28;20343;-73
2021/01/28 07:44:53;;;;;;;;;;;3.20;99.90;;;;;;5051286;28;19909;-73
2021/01/28 07:47:31;;;;;;;;;;;3.30;99.90;;;;;;5050548;28;19909;-72
2021/01/28 07:50:16;;;;;;;;;;;3.30;99.90;;;;;;5052740;28;19916;-72
2021/01/28 07:52:42;;;;;;;;;;;3.30;99.90;;;;;;5051511;28;20669;-73
2021/01/28 07:55:26;;;;;;;;;;;3.40;99.90;;;;;;5050607;28;20023;-72
2021/01/28 07:57:52;;;;;;;;;;;3.40;99.90;;;;;;5050044;28;19927;-73
2021/01/28 08:00:18;;;;;;;;;;;3.50;99.90;;;;;;5049700;28;19909;-72
2021/01/28 08:02:58;;;;;;;;;;;3.50;99.90;;;;;;5050797;28;19909;-73
2021/01/28 08:05:23;;;;;;;;;;;3.50;99.90;;;;;;5051436;28;19909;-72
2021/01/28 08:08:06;;;;;;;;;;;3.50;99.90;;;;;;5049945;28;19931;-71
2021/01/28 08:10:38;;;;;;;;;;;3.60;99.90;;;;;;5050966;28;19916;-72
2021/01/28 08:13:20;;;;;;;;;;;3.60;99.90;;;;;;5032823;28;19920;-72
2021/01/28 08:16:01;;;;;;;;;;;3.60;99.90;;;;;;5036876;28;19917;-70
2021/01/28 08:18:37;;;;;;;;;;;3.60;99.90;;;;;;5048252;28;20412;-73
2021/01/28 08:21:17;;;;;;;;;;;3.60;99.90;;;;;;5050635;28;20443;-74
2021/01/28 08:23:43;;;;;;;;;;;3.60;99.90;;;;;;5050197;28;19967;-74
2021/01/28 08:26:11;;;;;;;;;;;3.60;99.90;;;;;;5048591;28;19909;-73
2021/01/28 08:28:40;;;;;;;;;;;3.50;99.90;;;;;;5050294;28;19916;-75
2021/01/28 08:31:12;;;;;;;;;;;3.60;99.90;;;;;;5049782;28;19916;-73
2021/01/28 08:33:40;;;;;;;;;;;3.60;99.90;;;;;;5050599;28;19909;-75
2021/01/28 08:36:19;;;;;;;;;;;3.50;99.90;;;;;;5049937;28;19919;-73
2021/01/28 08:38:44;;;;;;;;;;;3.50;99.90;;;;;;5049908;28;19959;-75
2021/01/28 08:41:15;;;;;;;;;;;3.50;99.90;;;;;;5050112;28;19952;-75
2021/01/28 08:43:41;;;;;;;;;;;3.50;99.90;;;;;;5050843;28;20287;-75
2021/01/28 08:46:09;;;;;;;;;;;3.50;99.90;;;;;;5049198;28;19939;-75
2021/01/28 08:48:35;;;;;;;;;;;3.60;99.90;;;;;;5050014;28;19936;-75
2021/01/28 08:51:08;;;;;;;;;;;3.60;99.90;;;;;;5049806;28;19967;-74
2021/01/28 08:53:34;;;;;;;;;;;3.60;99.90;;;;;;5049321;28;19909;-74
2021/01/28 08:56:05;;;;;;;;;;;3.50;99.90;;;;;;5049386;28;20408;-74
2021/01/28 08:58:31;;;;;;;;;;;3.60;99.90;;;;;;5049144;28;19910;-74
2021/01/28 09:00:58;;;;;;;;;;;3.70;99.90;;;;;;5050199;28;19927;-75
2021/01/28 09:03:27;;;;;;;;;;;3.70;99.90;;;;;;5051285;28;19908;-74
2021/01/28 09:05:53;;;;;;;;;;;3.70;99.90;;;;;;5050178;28;19920;-74
2021/01/28 09:08:38;;;;;;;;;;;3.70;99.90;;;;;;5051319;28;20354;-74
2021/01/28 09:11:21;;;;;;;;;;;3.70;99.90;;;;;;5049811;28;19972;-74
2021/01/28 09:14:05;;;;;;;;;;;3.70;99.90;;;;;;5050802;28;20012;-74
2021/01/28 09:16:31;;;;;;;;;;;3.70;99.90;;;;;;5050259;28;19913;-75
2021/01/28 09:19:07;;;;;;;;;;;3.80;99.90;;;;;;5051178;28;19939;-75
2021/01/28 09:21:37;;;;;;;;;;;3.80;99.90;;;;;;5051421;28;19935;-73
2021/01/28 09:24:18;;;;;;;;;;;3.80;99.90;;;;;;5048665;28;20146;-76
2021/01/28 09:26:44;;;;;;;;;;;3.90;99.90;;;;;;5050519;28;19984;-72
2021/01/28 09:29:19;;;;;;;;;;;3.90;99.90;;;;;;5050906;28;19948;-74
2021/01/28 09:31:46;;;;;;;;;;;4.00;99.90;;;;;;5051896;28;19948;-75
2021/01/28 09:34:15;;;;;;;;;;;4.00;99.90;;;;;;5052502;28;19927;-74
2021/01/28 09:36:41;;;;;;;;;;;4.00;99.90;;;;;;5050955;28;19909;-75
2021/01/28 09:39:19;;;;;;;;;;;4.00;99.90;;;;;;5050757;28;20251;-74
2021/01/28 09:41:51;;;;;;;;;;;4.10;99.90;;;;;;5052149;28;19913;-74
2021/01/28 09:44:32;;;;;;;;;;;4.20;99.90;;;;;;5050280;28;20136;-74
2021/01/28 09:47:02;;;;;;;;;;;4.30;99.90;;;;;;5049292;28;19915;-72
2021/01/28 09:49:27;;;;;;;;;;;4.30;99.90;;;;;;5050460;28;20004;-73
2021/01/28 09:51:54;;;;;;;;;;;4.30;99.90;;;;;;5050549;28;20412;-73
2021/01/28 09:54:23;;;;;;;;;;;4.30;99.90;;;;;;5049166;28;19931;-73
2021/01/28 09:56:49;;;;;;;;;;;4.30;99.90;;;;;;5049129;28;19924;-72
2021/01/28 09:59:15;;;;;;;;;;;4.30;99.90;;;;;;5048807;28;19917;-72
2021/01/28 10:01:45;;;;;;;;;;;4.30;99.90;;;;;;5048757;28;19917;-72
2021/01/28 10:04:12;;;;;;;;;;;4.30;99.90;;;;;;5049576;28;19908;-72
2021/01/28 10:06:39;;;;;;;;;;;4.40;99.90;;;;;;5049532;28;20349;-73
2021/01/28 10:09:05;;;;;;;;;;;4.50;99.90;;;;;;5049026;28;20037;-73
2021/01/28 10:11:30;;;;;;;;;;;4.50;99.90;;;;;;5048729;28;20479;-73
2021/01/28 10:13:56;;;;;;;;;;;4.60;99.90;;;;;;5049464;28;19920;-74
2021/01/28 10:16:22;;;;;;;;;;;4.60;99.90;;;;;;5049194;28;20004;-75
2021/01/28 10:18:47;;;;;;;;;;;4.70;99.90;;;;;;5049685;28;19909;-75
2021/01/28 10:21:13;;;;;;;;;;;4.80;99.90;;;;;;5050018;28;20262;-74
2021/01/28 10:23:38;;;;;;;;;;;4.90;99.90;;;;;;5051382;28;19971;-73
2021/01/28 10:26:04;;;;;;;;;;;4.90;99.90;;;;;;5052928;28;20011;-71
2021/01/28 10:28:29;;;;;;;;;;;4.90;99.90;;;;;;5053512;28;19909;-73
2021/01/28 10:30:55;;;;;;;;;;;5.00;99.90;;;;;;5052208;28;19917;-74
2021/01/28 10:33:23;;;;;;;;;;;4.90;99.90;;;;;;5052069;28;19919;-74
2021/01/28 10:35:48;;;;;;;;;;;4.90;99.90;;;;;;5052755;28;20431;-73
2021/01/28 10:38:14;;;;;;;;;;;4.90;99.90;;;;;;5052014;28;20012;-72
2021/01/28 10:40:39;;;;;;;;;;;4.90;99.90;;;;;;5052487;28;20409;-74
2021/01/28 10:43:06;;;;;;;;;;;4.90;99.90;;;;;;5051785;28;19924;-73
2021/01/28 10:45:33;;;;;;;;;;;4.90;99.90;;;;;;5052356;28;19924;-73
2021/01/28 10:47:59;;;;;;;;;;;5.00;99.90;;;;;;5052738;28;19913;-74
2021/01/28 10:50:25;;;;;;;;;;;5.00;99.90;;;;;;5054587;28;19920;-73
2021/01/28 10:52:51;;;;;;;;;;;5.10;99.90;;;;;;5054517;28;19909;-73
2021/01/28 10:55:17;;;;;;;;;;;5.20;99.90;;;;;;5052721;28;20361;-73
2021/01/28 10:57:43;;;;;;;;;;;5.20;99.90;;;;;;5051707;28;19919;-73
2021/01/28 11:00:09;;;;;;;;;;;5.30;99.90;;;;;;5052631;28;19913;-73
2021/01/28 11:02:35;;;;;;;;;;;5.20;99.90;;;;;;5053835;28;20399;-73
2021/01/28 11:05:00;;;;;;;;;;;5.20;99.90;;;;;;5053706;28;19909;-73
2021/01/28 11:07:26;;;;;;;;;;;5.30;99.90;;;;;;5052629;28;20365;-73
2021/01/28 11:09:51;;;;;;;;;;;5.30;99.90;;;;;;5051905;28;19917;-73
2021/01/28 11:12:17;;;;;;;;;;;5.40;99.90;;;;;;5052032;28;20343;-74
2021/01/28 11:14:43;;;;;;;;;;;5.50;99.90;;;;;;5053144;28;20388;-74
2021/01/28 11:17:08;;;;;;;;;;;5.50;99.90;;;;;;5053034;28;19909;-74
2021/01/28 11:19:34;;;;;;;;;;;5.50;99.90;;;;;;5053517;28;19909;-74
2021/01/28 11:21:59;;;;;;;;;;;5.60;99.90;;;;;;5053779;28;19916;-74
2021/01/28 11:24:25;;;;;;;;;;;5.70;99.90;;;;;;5053399;28;20379;-74
2021/01/28 11:26:50;;;;;;;;;;;5.80;99.90;;;;;;5053498;28;20020;-74
2021/01/28 11:29:21;;;;;;;;;;;5.80;99.90;;;;;;5053085;28;20420;-74
2021/01/28 11:31:47;;;;;;;;;;;6.00;99.90;;;;;;5053243;28;19909;-74
2021/01/28 11:34:13;;;;;;;;;;;6.00;99.90;;;;;;5052752;28;19950;-74
2021/01/28 11:36:38;;;;;;;;;;;6.00;99.90;;;;;;5050577;28;19913;-73
2021/01/28 11:39:04;;;;;;;;;;;6.00;99.90;;;;;;5051959;28;19927;-73
2021/01/28 11:41:29;;;;;;;;;;;6.00;99.90;;;;;;5051933;28;20048;-74
2021/01/28 11:43:55;;;;;;;;;;;6.10;99.90;;;;;;5050800;28;19919;-75
2021/01/28 11:46:20;;;;;;;;;;;6.30;99.90;;;;;;5050338;28;20026;-75
2021/01/28 11:48:46;;;;;;;;;;;6.50;99.90;;;;;;5050686;28;19912;-75
2021/01/28 11:51:11;;;;;;;;;;;6.80;99.90;;;;;;5051459;28;19917;-75
2021/01/28 11:53:37;;;;;;;;;;;7.00;99.90;;;;;;5051680;28;19931;-75
2021/01/28 11:56:02;;;;;;;;;;;7.00;99.90;;;;;;5052268;28;19924;-75
2021/01/28 11:58:28;;;;;;;;;;;7.00;99.90;;;;;;5052172;28;19913;-74
2021/01/28 12:00:53;;;;;;;;;;;6.90;99.90;;;;;;5052059;28;19913;-75
2021/01/28 12:03:19;;;;;;;;;;;6.90;99.90;;;;;;5054024;28;19916;-74
2021/01/28 12:05:47;;;;;;;;;;;6.80;99.90;;;;;;5050903;28;20396;-73
2021/01/28 12:08:13;;;;;;;;;;;6.60;99.90;;;;;;5050941;28;19912;-72
2021/01/28 12:10:38;;;;;;;;;;;6.50;99.90;;;;;;5051079;28;20385;-75
2021/01/28 12:13:04;;;;;;;;;;;6.40;99.90;;;;;;5050686;28;20363;-75
2021/01/28 12:15:29;;;;;;;;;;;6.40;99.90;;;;;;5050654;28;19917;-75
2021/01/28 12:17:55;;;;;;;;;;;6.60;99.90;;;;;;5049933;28;19944;-76
2021/01/28 12:20:22;;;;;;;;;;;6.80;99.90;;;;;;5050861;28;19927;-75
2021/01/28 12:22:48;;;;;;;;;;;7.10;99.90;;;;;;5051381;28;19909;-75
2021/01/28 12:25:13;;;;;;;;;;;7.20;99.90;;;;;;5051940;28;19915;-76
2021/01/28 12:27:39;;;;;;;;;;;7.10;99.90;;;;;;5051240;28;19909;-75
2021/01/28 12:30:05;;;;;;;;;;;7.00;99.90;;;;;;5051485;28;19916;-75
2021/01/28 12:32:31;;;;;;;;;;;7.00;99.90;;;;;;5051669;28;20194;-76
2021/01/28 12:34:56;;;;;;;;;;;7.00;99.90;;;;;;5051632;28;20003;-76
2021/01/28 12:37:22;;;;;;;;;;;6.90;99.90;;;;;;5050873;28;19908;-76
2021/01/28 12:39:47;;;;;;;;;;;6.80;99.90;;;;;;5050151;28;19913;-75
2021/01/28 12:42:13;;;;;;;;;;;6.80;99.90;;;;;;5050037;28;19939;-74
2021/01/28 12:44:39;;;;;;;;;;;6.70;99.90;;;;;;5049218;28;19940;-76
2021/01/28 12:47:05;;;;;;;;;;;6.70;99.90;;;;;;5049154;28;19931;-76
2021/01/28 12:49:31;;;;;;;;;;;6.70;99.90;;;;;;5050342;28;19936;-76
2021/01/28 12:51:57;;;;;;;;;;;6.80;99.90;;;;;;5050542;28;19985;-75
2021/01/28 12:54:23;;;;;;;;;;;6.70;99.90;;;;;;5049904;28;19908;-75
2021/01/28 12:56:49;;;;;;;;;;;6.70;99.90;;;;;;5050122;28;19917;-76
2021/01/28 12:59:14;;;;;;;;;;;6.60;99.90;;;;;;5049674;28;20364;-75
2021/01/28 13:01:40;;;;;;;;;;;6.50;99.90;;;;;;5050148;28;19936;-75
2021/01/28 13:04:05;;;;;;;;;;;6.50;99.90;;;;;;5050040;28;19927;-74
2021/01/28 13:06:32;;;;;;;;;;;6.50;99.90;;;;;;5049822;28;20360;-75
2021/01/28 13:08:57;;;;;;;;;;;6.50;99.90;;;;;;5048710;28;20348;-75
2021/01/28 13:11:23;;;;;;;;;;;6.60;99.90;;;;;;5050340;28;20083;-76
2021/01/28 13:13:49;;;;;;;;;;;6.70;99.90;;;;;;5049483;28;19909;-75
2021/01/28 13:16:15;;;;;;;;;;;6.70;99.90;;;;;;5048633;28;19952;-75
2021/01/28 13:18:41;;;;;;;;;;;6.70;99.90;;;;;;5049776;28;19993;-76
2021/01/28 13:21:06;;;;;;;;;;;6.70;99.90;;;;;;5048483;28;20258;-72
2021/01/28 13:23:32;;;;;;;;;;;6.60;99.90;;;;;;5048757;28;20038;-74
2021/01/28 13:25:57;;;;;;;;;;;6.60;99.90;;;;;;5049095;28;19916;-75
2021/01/28 13:28:23;;;;;;;;;;;6.60;99.90;;;;;;5049287;28;20322;-76
2021/01/28 13:30:49;;;;;;;;;;;6.60;99.90;;;;;;5049103;28;20075;-74
2021/01/28 13:33:15;;;;;;;;;;;6.70;99.90;;;;;;5049520;28;20397;-75
2021/01/28 13:35:40;;;;;;;;;;;6.80;99.90;;;;;;5049344;28;19935;-74
2021/01/28 13:38:06;;;;;;;;;;;6.90;99.90;;;;;;5050837;28;19909;-76
2021/01/28 13:40:32;;;;;;;;;;;7.00;99.90;;;;;;5050921;28;19956;-76
2021/01/28 13:42:58;;;;;;;;;;;7.00;99.90;;;;;;5050744;28;19931;-75
2021/01/28 13:45:24;;;;;;;;;;;7.00;99.90;;;;;;5049241;28;19950;-76
2021/01/28 13:47:50;;;;;;;;;;;7.00;99.90;;;;;;5048352;28;19959;-76
2021/01/28 13:50:18;;;;;;;;;;;7.10;99.90;;;;;;5049417;28;19967;-76
2021/01/28 13:52:44;;;;;;;;;;;7.00;99.90;;;;;;5049877;28;19908;-76
2021/01/28 13:55:10;;;;;;;;;;;7.00;99.90;;;;;;5048743;28;19940;-75
2021/01/28 13:57:35;;;;;;;;;;;7.00;99.90;;;;;;5048936;28;20040;-75
2021/01/28 14:00:01;;;;;;;;;;;7.00;99.90;;;;;;5047811;28;19924;-75
2021/01/28 14:02:26;;;;;;;;;;;7.10;99.90;;;;;;5049264;28;19909;-75
2021/01/28 14:04:52;;;;;;;;;;;7.20;99.90;;;;;;5049392;28;19908;-75
2021/01/28 14:07:17;;;;;;;;;;;7.30;99.90;;;;;;5048188;28;20468;-75
2021/01/28 14:09:43;;;;;;;;;;;7.20;99.90;;;;;;5048187;28;19913;-75
2021/01/28 14:12:08;;;;;;;;;;;7.20;99.90;;;;;;5049234;28;19909;-75
2021/01/28 14:14:35;;;;;;;;;;;7.20;99.90;;;;;;5048684;28;19924;-76
2021/01/28 14:17:01;;;;;;;;;;;7.30;99.90;;;;;;5048454;28;20409;-76
2021/01/28 14:19:26;;;;;;;;;;;7.30;99.90;;;;;;5049257;28;20002;-76
2021/01/28 14:21:52;;;;;;;;;;;7.30;99.90;;;;;;5048968;28;19916;-75
2021/01/28 14:24:17;;;;;;;;;;;7.30;99.90;;;;;;5048542;28;19916;-74
2021/01/28 14:26:43;;;;;;;;;;;7.40;99.90;;;;;;5048179;28;20001;-74
2021/01/28 14:29:09;;;;;;;;;;;7.40;99.90;;;;;;5048382;28;19931;-74
2021/01/28 14:31:34;;;;;;;;;;;7.40;99.90;;;;;;5048479;28;19920;-76
2021/01/28 14:34:01;;;;;;;;;;;7.40;99.90;;;;;;5048182;28;19916;-75
2021/01/28 14:36:26;;;;;;;;;;;7.50;99.90;;;;;;5048373;28;19909;-74